Time;durP1;ratioP1;P1;durP2;ratioP2;P2;SDS_P1;SDS_P2;PMS_P1;PMS_P2;Temp;Humidity;BMP_temperature;BMP_pressure;BME280_temperature;BME280_humidity;BME280_pressure;Samples;Min_cycle;Max_cycle;Signal;HPM_P1;HPM_P2
2022/11/20 00:02:03;;;;;;;;;47.50;38.75;;;;;;;;4974614;28;51136;-42
2022/11/20 00:04:47;;;;;;;;;52.00;39.50;;;;;;;;4962600;28;51158;-43
2022/11/20 00:07:32;;;;;;;;;52.75;39.00;;;;;;;;4979915;28;51158;-43
2022/11/20 00:10:16;;;;;;;;;47.00;38.25;;;;;;;;5017453;28;52680;-46
2022/11/20 00:13:00;;;;;;;;;47.50;38.25;;;;;;;;5007388;28;51539;-43
2022/11/20 00:15:45;;;;;;;;;45.75;34.75;;;;;;;;5004403;28;51129;-43
2022/11/20 00:18:29;;;;;;;;;46.50;35.75;;;;;;;;4996492;28;51177;-46
2022/11/20 00:21:15;;;;;;;;;37.75;33.00;;;;;;;;4991714;28;51158;-46
2022/11/20 00:23:59;;;;;;;;;46.25;37.00;;;;;;;;4981403;28;51144;-47
2022/11/20 00:26:44;;;;;;;;;45.75;35.50;;;;;;;;5004457;28;51736;-46
2022/11/20 00:29:28;;;;;;;;;44.50;35.75;;;;;;;;4979128;28;51149;-46
2022/11/20 00:32:13;;;;;;;;;46.50;35.75;;;;;;;;4965851;28;51082;-44
2022/11/20 00:34:57;;;;;;;;;45.50;35.25;;;;;;;;5020249;28;51613;-45
2022/11/20 00:37:42;;;;;;;;;46.50;35.50;;;;;;;;5007428;28;51385;-47
2022/11/20 00:40:26;;;;;;;;;47.00;35.50;;;;;;;;4999198;28;51622;-44
2022/11/20 00:43:10;;;;;;;;;41.25;36.00;;;;;;;;5014445;28;51178;-47
2022/11/20 00:46:02;;;;;;;;;41.50;34.75;;;;;;;;4999434;28;51357;-44
2022/11/20 00:48:46;;;;;;;;;42.25;34.25;;;;;;;;4995796;28;51168;-45
2022/11/20 00:51:30;;;;;;;;;33.50;27.75;;;;;;;;4982478;28;51161;-45
2022/11/20 00:54:15;;;;;;;;;39.75;31.75;;;;;;;;4970764;28;51133;-47
2022/11/20 00:56:59;;;;;;;;;41.50;33.00;;;;;;;;4977966;28;51102;-44
2022/11/20 00:59:44;;;;;;;;;36.50;32.25;;;;;;;;4968776;28;51367;-49
2022/11/20 01:02:28;;;;;;;;;39.25;30.50;;;;;;;;5016659;28;51126;-44
2022/11/20 01:05:13;;;;;;;;;38.00;30.50;;;;;;;;5004996;28;51362;-47
2022/11/20 01:07:57;;;;;;;;;33.25;30.75;;;;;;;;5015408;28;51092;-44
2022/11/20 01:10:43;;;;;;;;;37.25;32.00;;;;;;;;5005076;28;51484;-44
2022/11/20 01:13:36;;;;;;;;;42.75;32.75;;;;;;;;5004914;28;51577;-44
2022/11/20 01:16:25;;;;;;;;;37.75;32.50;;;;;;;;4988965;28;50996;-46
2022/11/20 01:19:11;;;;;;;;;27.25;25.50;;;;;;;;4966532;28;51173;-45
2022/11/20 01:21:56;;;;;;;;;32.00;28.75;;;;;;;;4965632;28;51183;-43
2022/11/20 01:24:40;;;;;;;;;38.25;28.75;;;;;;;;4962285;28;51422;-44
2022/11/20 01:27:25;;;;;;;;;37.00;32.25;;;;;;;;4981605;28;51168;-44
2022/11/20 01:30:09;;;;;;;;;34.00;30.00;;;;;;;;5026019;28;51210;-42
2022/11/20 01:32:55;;;;;;;;;33.75;27.75;;;;;;;;5051448;28;51215;-42
2022/11/20 01:35:39;;;;;;;;;33.00;28.75;;;;;;;;5061109;28;51146;-42
2022/11/20 01:38:24;;;;;;;;;31.00;29.00;;;;;;;;5061046;28;51157;-44
2022/11/20 01:41:09;;;;;;;;;32.25;27.00;;;;;;;;5061153;28;51131;-46
2022/11/20 01:43:54;;;;;;;;;36.50;27.25;;;;;;;;5005894;28;51020;-48
2022/11/20 01:46:40;;;;;;;;;32.75;28.00;;;;;;;;5001528;28;51476;-46
2022/11/20 01:49:26;;;;;;;;;31.50;28.00;;;;;;;;5013691;28;51711;-47
2022/11/20 01:52:17;;;;;;;;;28.50;25.50;;;;;;;;5015034;28;51156;-43
2022/11/20 01:55:04;;;;;;;;;35.50;27.00;;;;;;;;4996466;28;51037;-45
2022/11/20 01:57:50;;;;;;;;;32.00;28.00;;;;;;;;5004161;27;51403;-44
2022/11/20 02:00:34;;;;;;;;;35.75;29.25;;;;;;;;4986940;28;51127;-45
2022/11/20 02:03:19;;;;;;;;;29.75;27.00;;;;;;;;4983094;28;51209;-45
2022/11/20 02:06:22;;;;;;;;;35.00;28.75;;;;;;;;4985130;28;51673;-43
2022/11/20 02:09:06;;;;;;;;;37.50;28.75;;;;;;;;4977192;28;51102;-49
2022/11/20 02:11:51;;;;;;;;;31.50;27.00;;;;;;;;4961828;28;51154;-43
2022/11/20 02:14:35;;;;;;;;;32.00;26.25;;;;;;;;4960442;28;51059;-41
2022/11/20 02:17:20;;;;;;;;;36.75;29.25;;;;;;;;4958496;28;51212;-44
2022/11/20 02:20:05;;;;;;;;;30.50;26.25;;;;;;;;4960205;28;51614;-46
2022/11/20 02:23:03;;;;;;;;;24.50;23.25;;;;;;;;4972623;28;51491;-43
2022/11/20 02:25:48;;;;;;;;;29.25;26.50;;;;;;;;4968379;28;51414;-44
2022/11/20 02:28:33;;;;;;;;;26.50;23.25;;;;;;;;5031078;28;51159;-44
2022/11/20 02:31:17;;;;;;;;;28.00;23.75;;;;;;;;5059923;28;51045;-43
2022/11/20 02:34:01;;;;;;;;;25.50;24.50;;;;;;;;5059775;28;51144;-45
2022/11/20 02:36:46;;;;;;;;;28.75;23.25;;;;;;;;5060132;28;51161;-47
2022/11/20 02:39:31;;;;;;;;;29.50;25.00;;;;;;;;5059641;28;51086;-46
2022/11/20 02:42:15;;;;;;;;;28.25;24.75;;;;;;;;5059984;28;51182;-43
2022/11/20 02:44:59;;;;;;;;;27.50;24.50;;;;;;;;5045921;28;51043;-44
2022/11/20 02:47:44;;;;;;;;;32.25;27.75;;;;;;;;5058686;28;51137;-46
2022/11/20 02:50:28;;;;;;;;;30.50;24.25;;;;;;;;5058425;28;51526;-46
2022/11/20 02:53:12;;;;;;;;;27.25;26.00;;;;;;;;5059702;28;51142;-44
2022/11/20 02:55:57;;;;;;;;;29.50;27.25;;;;;;;;5020894;28;51064;-44
2022/11/20 02:58:41;;;;;;;;;32.00;26.50;;;;;;;;5046807;28;51054;-42
2022/11/20 03:01:26;;;;;;;;;29.50;25.50;;;;;;;;5059585;28;51092;-44
2022/11/20 03:04:10;;;;;;;;;25.25;23.75;;;;;;;;5059456;28;51502;-45
2022/11/20 03:06:54;;;;;;;;;26.00;24.75;;;;;;;;5058886;28;51145;-45
2022/11/20 03:09:39;;;;;;;;;22.50;20.25;;;;;;;;5059059;28;51060;-43
2022/11/20 03:12:23;;;;;;;;;31.25;26.00;;;;;;;;5059137;28;51192;-45
2022/11/20 03:15:08;;;;;;;;;33.25;28.00;;;;;;;;5058963;28;51573;-45
2022/11/20 03:17:55;;;;;;;;;28.00;25.25;;;;;;;;5051310;28;51212;-43
2022/11/20 03:20:40;;;;;;;;;30.75;23.50;;;;;;;;5059370;28;51497;-43
2022/11/20 03:23:24;;;;;;;;;34.00;28.75;;;;;;;;5058978;28;51072;-48
2022/11/20 03:26:09;;;;;;;;;27.50;25.75;;;;;;;;5058745;28;51030;-44
2022/11/20 03:28:54;;;;;;;;;24.75;23.50;;;;;;;;5058971;28;51528;-44
2022/11/20 03:31:40;;;;;;;;;27.50;24.00;;;;;;;;5002185;28;51560;-44
2022/11/20 03:34:25;;;;;;;;;32.50;27.00;;;;;;;;4976116;28;51120;-45
2022/11/20 03:37:09;;;;;;;;;35.50;28.25;;;;;;;;4976421;28;51167;-44
2022/11/20 03:39:53;;;;;;;;;28.25;24.75;;;;;;;;4976425;28;51003;-51
2022/11/20 03:42:47;;;;;;;;;28.50;27.25;;;;;;;;4976285;28;51056;-45
2022/11/20 03:45:31;;;;;;;;;34.00;26.50;;;;;;;;4976630;28;51057;-45
2022/11/20 03:48:15;;;;;;;;;33.25;26.75;;;;;;;;4975968;28;51002;-43
2022/11/20 03:51:11;;;;;;;;;26.00;25.50;;;;;;;;4976613;28;51118;-42
2022/11/20 03:53:56;;;;;;;;;30.25;24.75;;;;;;;;4976075;28;51542;-45
2022/11/20 03:56:40;;;;;;;;;28.50;23.75;;;;;;;;4976566;28;51054;-43
2022/11/20 03:59:25;;;;;;;;;26.50;24.50;;;;;;;;4976230;28;51489;-47
2022/11/20 04:02:09;;;;;;;;;26.25;22.25;;;;;;;;4976490;28;51343;-48
2022/11/20 04:04:53;;;;;;;;;35.00;28.00;;;;;;;;4976295;28;51091;-42
2022/11/20 04:07:38;;;;;;;;;31.00;25.50;;;;;;;;4976133;28;51531;-45
2022/11/20 04:10:23;;;;;;;;;28.00;26.75;;;;;;;;4977148;28;51900;-45
2022/11/20 04:13:07;;;;;;;;;28.50;26.75;;;;;;;;4976259;28;51168;-44
2022/11/20 04:15:56;;;;;;;;;31.50;23.25;;;;;;;;4976393;28;51074;-43
2022/11/20 04:18:41;;;;;;;;;30.50;27.25;;;;;;;;4975796;28;51113;-42
2022/11/20 04:21:26;;;;;;;;;32.25;26.25;;;;;;;;4976117;28;51133;-43
2022/11/20 04:24:10;;;;;;;;;29.75;26.00;;;;;;;;4976036;28;51166;-43
2022/11/20 04:26:54;;;;;;;;;28.75;24.75;;;;;;;;4979691;28;51126;-47
2022/11/20 04:29:38;;;;;;;;;30.00;24.75;;;;;;;;5002050;28;51487;-45
2022/11/20 04:32:23;;;;;;;;;33.75;27.00;;;;;;;;5062228;28;51185;-48
2022/11/20 04:35:08;;;;;;;;;29.50;27.50;;;;;;;;5062133;28;51601;-45
2022/11/20 04:37:52;;;;;;;;;28.00;26.25;;;;;;;;5062052;28;51115;-43
2022/11/20 04:40:37;;;;;;;;;28.75;25.00;;;;;;;;5062140;28;51189;-47
2022/11/20 04:43:21;;;;;;;;;33.00;27.25;;;;;;;;5061909;28;51052;-41
2022/11/20 04:46:05;;;;;;;;;29.75;27.25;;;;;;;;5062029;28;51071;-44
2022/11/20 04:48:50;;;;;;;;;32.50;28.25;;;;;;;;5022793;28;51107;-47
2022/11/20 04:51:34;;;;;;;;;34.25;30.25;;;;;;;;5062041;28;51177;-45
2022/11/20 04:54:20;;;;;;;;;37.00;31.50;;;;;;;;5061779;28;51441;-45
2022/11/20 04:57:04;;;;;;;;;38.25;30.50;;;;;;;;5061720;28;51045;-45
2022/11/20 04:59:48;;;;;;;;;27.50;25.75;;;;;;;;5061613;28;51228;-45
2022/11/20 05:02:33;;;;;;;;;40.00;31.75;;;;;;;;5061514;28;51129;-47
2022/11/20 05:05:18;;;;;;;;;32.75;29.25;;;;;;;;5061710;28;51094;-46
2022/11/20 05:08:02;;;;;;;;;33.25;27.50;;;;;;;;5061265;28;51021;-45
2022/11/20 05:10:47;;;;;;;;;31.00;27.25;;;;;;;;5061480;28;51536;-47
2022/11/20 05:13:31;;;;;;;;;30.25;28.50;;;;;;;;5061220;28;51101;-44
2022/11/20 05:16:17;;;;;;;;;34.50;30.25;;;;;;;;5061668;28;51197;-44
2022/11/20 05:19:01;;;;;;;;;34.00;29.00;;;;;;;;5045563;28;51187;-43
2022/11/20 05:21:45;;;;;;;;;34.00;31.50;;;;;;;;5061405;28;51059;-44
2022/11/20 05:24:30;;;;;;;;;37.25;32.00;;;;;;;;5061387;28;51162;-45
2022/11/20 05:27:14;;;;;;;;;36.50;31.25;;;;;;;;5060861;28;51495;-47
2022/11/20 05:29:59;;;;;;;;;45.50;33.00;;;;;;;;5061424;28;51149;-42
2022/11/20 05:32:43;;;;;;;;;44.00;33.25;;;;;;;;5060758;28;51878;-45
2022/11/20 05:35:28;;;;;;;;;36.00;32.50;;;;;;;;5061229;28;51159;-46
2022/11/20 05:38:12;;;;;;;;;41.00;32.00;;;;;;;;5060775;28;51183;-48
2022/11/20 05:41:06;;;;;;;;;43.00;35.00;;;;;;;;5048863;28;51157;-44
2022/11/20 05:43:50;;;;;;;;;44.00;34.00;;;;;;;;5060660;28;51370;-46
2022/11/20 05:46:35;;;;;;;;;39.00;32.00;;;;;;;;5053292;28;51060;-45
2022/11/20 05:49:19;;;;;;;;;45.75;37.50;;;;;;;;5058477;28;51513;-48
2022/11/20 05:52:04;;;;;;;;;45.00;37.25;;;;;;;;5060328;28;51015;-44
2022/11/20 05:54:49;;;;;;;;;44.00;34.75;;;;;;;;5039253;28;50953;-43
2022/11/20 05:57:33;;;;;;;;;41.25;35.00;;;;;;;;5022898;28;51137;-41
2022/11/20 06:00:18;;;;;;;;;47.50;36.50;;;;;;;;5060445;28;51619;-44
2022/11/20 06:03:03;;;;;;;;;46.50;36.00;;;;;;;;5041406;28;51026;-45
2022/11/20 06:05:48;;;;;;;;;43.50;35.00;;;;;;;;5058185;28;50983;-42
2022/11/20 06:08:32;;;;;;;;;41.25;34.50;;;;;;;;5059896;28;51183;-42
2022/11/20 06:11:17;;;;;;;;;47.50;37.75;;;;;;;;5060246;28;51137;-47
2022/11/20 06:14:01;;;;;;;;;45.25;35.75;;;;;;;;5060186;28;51133;-43
2022/11/20 06:16:46;;;;;;;;;47.00;38.25;;;;;;;;5059851;28;51134;-47
2022/11/20 06:19:30;;;;;;;;;49.25;39.50;;;;;;;;5060272;28;51141;-46
2022/11/20 06:22:14;;;;;;;;;50.50;41.50;;;;;;;;5060107;28;51553;-42
2022/11/20 06:24:59;;;;;;;;;45.75;38.00;;;;;;;;5060283;28;51561;-46
2022/11/20 06:27:44;;;;;;;;;52.00;39.00;;;;;;;;5059916;28;51165;-44
2022/11/20 06:30:28;;;;;;;;;47.50;39.50;;;;;;;;5060449;28;50960;-43
2022/11/20 06:33:12;;;;;;;;;49.75;38.25;;;;;;;;5059699;28;51541;-44
2022/11/20 06:36:00;;;;;;;;;51.00;40.00;;;;;;;;5059823;28;51175;-44
2022/11/20 06:38:45;;;;;;;;;50.25;39.00;;;;;;;;4977622;28;51541;-42
2022/11/20 06:41:29;;;;;;;;;49.25;41.00;;;;;;;;4977269;28;51157;-47
2022/11/20 06:44:14;;;;;;;;;50.00;42.50;;;;;;;;4977409;28;51081;-46
2022/11/20 06:46:58;;;;;;;;;54.00;44.25;;;;;;;;4971567;28;51362;-44
2022/11/20 06:49:42;;;;;;;;;52.25;42.25;;;;;;;;5058525;28;51055;-43
2022/11/20 06:52:27;;;;;;;;;52.75;42.25;;;;;;;;5059529;28;51174;-42
2022/11/20 06:55:11;;;;;;;;;50.00;40.00;;;;;;;;5060021;28;51056;-46
2022/11/20 06:57:56;;;;;;;;;48.50;38.50;;;;;;;;5059542;28;51541;-44
2022/11/20 07:00:40;;;;;;;;;49.00;40.75;;;;;;;;5059432;28;51297;-46
2022/11/20 07:03:25;;;;;;;;;52.00;40.50;;;;;;;;5059356;28;51587;-43
2022/11/20 07:06:10;;;;;;;;;52.50;42.25;;;;;;;;5059316;28;51169;-45
2022/11/20 07:08:54;;;;;;;;;53.00;43.50;;;;;;;;5016857;28;51083;-45
2022/11/20 07:11:39;;;;;;;;;52.50;41.50;;;;;;;;4976740;28;51414;-46
2022/11/20 07:14:23;;;;;;;;;55.00;43.50;;;;;;;;4976841;28;51087;-45
2022/11/20 07:17:08;;;;;;;;;50.50;41.50;;;;;;;;4976666;28;51182;-42
2022/11/20 07:19:52;;;;;;;;;54.25;43.00;;;;;;;;4977233;28;51164;-43
2022/11/20 07:22:37;;;;;;;;;55.75;43.00;;;;;;;;4976849;28;51003;-45
2022/11/20 07:25:22;;;;;;;;;55.25;42.50;;;;;;;;4977032;28;51036;-43
2022/11/20 07:28:06;;;;;;;;;52.25;42.25;;;;;;;;4976838;28;51589;-45
2022/11/20 07:30:54;;;;;;;;;50.00;40.00;;;;;;;;4976492;28;51086;-43
2022/11/20 07:33:38;;;;;;;;;55.00;41.25;;;;;;;;4977006;28;51129;-42
2022/11/20 07:36:23;;;;;;;;;52.75;41.00;;;;;;;;4976750;28;51078;-44
2022/11/20 07:39:07;;;;;;;;;51.50;39.50;;;;;;;;4976640;28;51043;-45
2022/11/20 07:41:52;;;;;;;;;48.75;37.75;;;;;;;;4976396;28;51077;-46
2022/11/20 07:44:36;;;;;;;;;48.75;39.25;;;;;;;;4976967;28;51131;-43
2022/11/20 07:47:20;;;;;;;;;41.00;35.25;;;;;;;;4996296;28;51513;-45
2022/11/20 07:50:05;;;;;;;;;41.75;34.00;;;;;;;;5059126;28;51111;-42
2022/11/20 07:52:49;;;;;;;;;40.75;33.25;;;;;;;;5059043;28;51534;-46
2022/11/20 07:55:34;;;;;;;;;37.25;30.00;;;;;;;;5059128;28;51552;-48
2022/11/20 07:58:19;;;;;;;;;36.25;29.50;;;;;;;;5059143;28;51078;-41
2022/11/20 08:01:05;;;;;;;;;31.25;27.50;;;;;;;;5061793;28;51152;-45
2022/11/20 08:03:49;;;;;;;;;26.25;22.00;;;;;;;;5062723;28;51523;-44
2022/11/20 08:06:33;;;;;;;;;37.00;29.00;;;;;;;;5062732;28;51054;-42
2022/11/20 08:09:18;;;;;;;;;26.00;22.25;;;;;;;;5058729;28;51158;-49
2022/11/20 08:15:05;;;;;;;;;38.50;26.00;;;;;;;;5052644;28;51078;-45
2022/11/20 08:17:50;;;;;;;;;43.25;30.50;;;;;;;;5062688;28;51450;-45
2022/11/20 08:20:35;;;;;;;;;30.50;28.75;;;;;;;;5062633;28;51130;-46
2022/11/20 08:23:19;;;;;;;;;32.50;29.25;;;;;;;;5062322;28;51276;-45
2022/11/20 08:26:03;;;;;;;;;38.00;29.50;;;;;;;;5061491;28;51357;-45
2022/11/20 08:28:48;;;;;;;;;34.75;27.00;;;;;;;;5062522;28;51107;-46
2022/11/20 08:31:32;;;;;;;;;31.00;26.25;;;;;;;;5062162;28;51193;-47
2022/11/20 08:34:16;;;;;;;;;29.75;26.50;;;;;;;;5062436;28;51094;-45
2022/11/20 08:37:02;;;;;;;;;25.00;23.75;;;;;;;;5062020;28;51082;-47
2022/11/20 08:39:47;;;;;;;;;24.00;22.25;;;;;;;;5046738;28;51124;-43
2022/11/20 08:42:31;;;;;;;;;26.25;22.25;;;;;;;;4979408;28;51436;-46
2022/11/20 08:45:16;;;;;;;;;24.00;22.75;;;;;;;;4978972;28;51074;-44
2022/11/20 08:48:01;;;;;;;;;28.25;26.00;;;;;;;;5003933;28;51140;-43
2022/11/20 08:50:46;;;;;;;;;29.25;23.25;;;;;;;;5062004;28;51094;-44
2022/11/20 08:53:30;;;;;;;;;22.50;19.75;;;;;;;;5061882;28;51547;-43
2022/11/20 08:56:15;;;;;;;;;31.50;25.25;;;;;;;;5061540;28;51137;-47
2022/11/20 08:58:59;;;;;;;;;30.50;25.50;;;;;;;;5062282;28;51019;-44
2022/11/20 09:01:43;;;;;;;;;24.75;20.50;;;;;;;;5044838;28;51167;-44
2022/11/20 09:04:28;;;;;;;;;26.25;21.50;;;;;;;;4978923;28;51182;-45
2022/11/20 09:07:13;;;;;;;;;25.75;24.75;;;;;;;;4979114;28;51145;-47
2022/11/20 09:09:57;;;;;;;;;27.75;20.00;;;;;;;;4978749;28;51027;-46
2022/11/20 09:12:42;;;;;;;;;23.75;19.00;;;;;;;;4979108;28;51153;-45
2022/11/20 09:15:26;;;;;;;;;20.25;19.75;;;;;;;;4978574;28;51187;-45
2022/11/20 09:18:11;;;;;;;;;19.50;18.00;;;;;;;;4978691;28;51103;-45
2022/11/20 09:20:59;;;;;;;;;21.00;15.50;;;;;;;;4978639;28;51236;-45
2022/11/20 09:23:43;;;;;;;;;21.00;16.75;;;;;;;;4978877;28;51091;-45
2022/11/20 09:26:27;;;;;;;;;16.25;16.25;;;;;;;;4978495;28;51125;-47
2022/11/20 09:29:12;;;;;;;;;19.50;17.25;;;;;;;;5041395;28;51134;-47
2022/11/20 09:31:56;;;;;;;;;15.75;12.50;;;;;;;;5061104;28;51057;-45
2022/11/20 09:34:40;;;;;;;;;18.75;15.75;;;;;;;;4985141;28;51062;-46
2022/11/20 09:37:25;;;;;;;;;18.00;16.00;;;;;;;;4978716;28;51057;-44
2022/11/20 09:40:26;;;;;;;;;19.25;16.25;;;;;;;;4978491;28;51172;-45
2022/11/20 09:43:18;;;;;;;;;15.00;13.00;;;;;;;;4978513;28;51048;-45
2022/11/20 09:46:09;;;;;;;;;20.00;14.75;;;;;;;;5004049;28;51145;-42
2022/11/20 09:49:12;;;;;;;;;12.75;11.25;;;;;;;;5025468;28;51023;-45
2022/11/20 09:52:16;;;;;;;;;17.75;13.50;;;;;;;;5060612;28;51421;-44
2022/11/20 09:55:02;;;;;;;;;15.50;14.75;;;;;;;;5060711;28;51141;-42
2022/11/20 09:57:48;;;;;;;;;13.25;11.00;;;;;;;;5060660;28;51189;-41
2022/11/20 10:00:32;;;;;;;;;14.50;12.00;;;;;;;;5034762;28;51098;-48
2022/11/20 10:03:19;;;;;;;;;12.75;11.00;;;;;;;;5060588;28;51044;-45
2022/11/20 10:06:07;;;;;;;;;17.75;12.00;;;;;;;;5060587;28;51083;-43
2022/11/20 10:08:58;;;;;;;;;16.00;11.75;;;;;;;;5060585;28;51383;-42
2022/11/20 10:12:02;;;;;;;;;14.25;13.25;;;;;;;;5059965;28;51193;-44
2022/11/20 10:14:46;;;;;;;;;13.75;12.75;;;;;;;;5060579;28;51185;-44
2022/11/20 10:17:46;;;;;;;;;13.50;13.25;;;;;;;;5060035;28;50979;-45
2022/11/20 10:20:34;;;;;;;;;10.25;10.00;;;;;;;;5060121;28;51147;-45
2022/11/20 10:23:18;;;;;;;;;12.75;9.75;;;;;;;;5059547;28;51021;-46
2022/11/20 10:26:16;;;;;;;;;18.50;13.50;;;;;;;;5060047;28;51110;-40
2022/11/20 10:29:14;;;;;;;;;15.75;14.25;;;;;;;;5059684;28;51347;-46
2022/11/20 10:32:11;;;;;;;;;13.25;12.50;;;;;;;;5045597;28;51128;-44
2022/11/20 10:35:14;;;;;;;;;14.25;11.00;;;;;;;;5059967;28;51011;-45
2022/11/20 10:38:00;;;;;;;;;15.00;12.00;;;;;;;;5060005;28;51165;-45
2022/11/20 10:40:46;;;;;;;;;12.75;11.25;;;;;;;;5052191;28;51160;-45
2022/11/20 10:43:34;;;;;;;;;16.00;12.75;;;;;;;;5059722;28;51436;-44
2022/11/20 10:46:21;;;;;;;;;14.75;13.00;;;;;;;;5050313;28;51086;-45
2022/11/20 10:49:16;;;;;;;;;16.00;14.50;;;;;;;;4977302;28;51385;-46
2022/11/20 10:52:06;;;;;;;;;14.75;14.75;;;;;;;;4977438;28;51857;-43
2022/11/20 10:54:59;;;;;;;;;14.50;12.50;;;;;;;;4977107;28;51409;-46
2022/11/20 10:57:52;;;;;;;;;17.25;14.50;;;;;;;;4977233;28;50999;-45
2022/11/20 11:00:36;;;;;;;;;15.50;15.50;;;;;;;;4977187;28;51593;-46
2022/11/20 11:03:23;;;;;;;;;13.50;13.50;;;;;;;;4977005;28;51066;-45
2022/11/20 11:06:26;;;;;;;;;12.75;11.00;;;;;;;;4977431;28;51122;-46
2022/11/20 11:09:13;;;;;;;;;19.50;13.25;;;;;;;;4977017;28;51078;-47
2022/11/20 11:11:58;;;;;;;;;17.50;14.00;;;;;;;;4976973;28;51081;-45
2022/11/20 11:14:43;;;;;;;;;12.25;10.50;;;;;;;;4977397;28;51368;-45
2022/11/20 11:17:29;;;;;;;;;14.75;12.25;;;;;;;;4977181;28;51026;-44
2022/11/20 11:20:14;;;;;;;;;14.75;12.00;;;;;;;;4976864;28;51046;-46
2022/11/20 11:22:59;;;;;;;;;14.50;12.00;;;;;;;;4976698;28;51030;-46
2022/11/20 11:25:55;;;;;;;;;14.50;11.00;;;;;;;;4977200;28;51192;-43
2022/11/20 11:28:40;;;;;;;;;14.00;12.00;;;;;;;;4976480;28;51223;-43
2022/11/20 11:31:25;;;;;;;;;11.00;10.50;;;;;;;;4982459;28;51123;-45
2022/11/20 11:34:17;;;;;;;;;12.00;9.75;;;;;;;;5032844;28;51110;-47
2022/11/20 11:37:03;;;;;;;;;14.25;12.50;;;;;;;;5063443;28;51215;-46
2022/11/20 11:39:48;;;;;;;;;15.25;11.50;;;;;;;;5063928;28;51477;-44
2022/11/20 11:42:33;;;;;;;;;15.75;12.75;;;;;;;;5063568;28;51101;-45
2022/11/20 11:45:17;;;;;;;;;13.75;11.50;;;;;;;;5046018;28;51139;-46
2022/11/20 11:48:03;;;;;;;;;15.25;11.50;;;;;;;;5047613;28;51155;-45
2022/11/20 11:50:48;;;;;;;;;14.50;13.00;;;;;;;;5063146;28;51050;-46
2022/11/20 11:53:33;;;;;;;;;13.25;13.25;;;;;;;;5062087;28;51080;-45
2022/11/20 11:56:18;;;;;;;;;12.75;11.50;;;;;;;;5037600;28;51153;-44
2022/11/20 11:59:06;;;;;;;;;16.25;14.00;;;;;;;;4979809;28;51351;-47
2022/11/20 12:01:58;;;;;;;;;12.50;9.75;;;;;;;;4979655;28;51162;-43
2022/11/20 12:04:44;;;;;;;;;14.00;11.25;;;;;;;;4979423;28;51550;-44
2022/11/20 12:07:31;;;;;;;;;12.50;10.25;;;;;;;;4979888;28;51070;-45
2022/11/20 12:10:16;;;;;;;;;12.25;11.75;;;;;;;;4979322;28;51358;-46
2022/11/20 12:13:30;;;;;;;;;12.25;10.50;;;;;;;;4979473;28;51193;-42
2022/11/20 12:16:16;;;;;;;;;14.00;11.00;;;;;;;;4948114;28;51183;-45
2022/11/20 12:19:00;;;;;;;;;11.50;7.75;;;;;;;;4979280;28;51106;-47
2022/11/20 12:21:57;;;;;;;;;7.25;7.00;;;;;;;;4979778;28;51234;-44
2022/11/20 12:24:47;;;;;;;;;10.75;8.25;;;;;;;;4978670;28;51522;-48
2022/11/20 12:27:31;;;;;;;;;8.25;8.25;;;;;;;;4979047;28;51089;-44
2022/11/20 12:30:17;;;;;;;;;16.25;12.00;;;;;;;;4979396;28;51180;-43
2022/11/20 12:33:13;;;;;;;;;17.25;14.00;;;;;;;;4979438;28;51228;-46
2022/11/20 12:36:13;;;;;;;;;12.75;11.00;;;;;;;;4979114;28;51358;-46
2022/11/20 12:39:00;;;;;;;;;17.75;11.50;;;;;;;;4979536;28;51213;-46
2022/11/20 12:45:11;;;;;;;;;13.50;12.25;;;;;;;;4986932;28;51265;-45
2022/11/20 12:48:05;;;;;;;;;16.75;13.75;;;;;;;;5005812;28;51076;-42
2022/11/20 12:51:08;;;;;;;;;17.25;13.75;;;;;;;;5061596;28;51331;-42
2022/11/20 12:53:59;;;;;;;;;19.00;14.25;;;;;;;;5061632;28;51049;-43
2022/11/20 12:56:56;;;;;;;;;16.00;14.50;;;;;;;;5089395;27;51206;-43
2022/11/20 12:59:44;;;;;;;;;15.50;11.00;;;;;;;;5061280;28;51157;-47
2022/11/20 13:02:41;;;;;;;;;15.75;14.25;;;;;;;;5061468;28;51537;-47
2022/11/20 13:05:35;;;;;;;;;19.25;14.00;;;;;;;;5057409;28;51253;-45
2022/11/20 13:08:24;;;;;;;;;19.00;15.75;;;;;;;;5061660;28;51225;-47
2022/11/20 13:11:47;;;;;;;;;18.00;13.00;;;;;;;;4978636;28;51181;-48
2022/11/20 13:14:35;;;;;;;;;14.00;12.00;;;;;;;;4937645;28;51141;-44
2022/11/20 13:17:21;;;;;;;;;15.50;14.25;;;;;;;;4945475;28;51049;-44
2022/11/20 13:20:06;;;;;;;;;15.25;14.25;;;;;;;;4986939;28;51229;-46
2022/11/20 13:22:52;;;;;;;;;17.50;15.50;;;;;;;;4978766;28;50958;-43
2022/11/20 13:25:37;;;;;;;;;21.75;16.25;;;;;;;;5059815;28;51115;-42
2022/11/20 13:28:21;;;;;;;;;20.25;17.25;;;;;;;;5060897;28;51366;-42
2022/11/20 13:31:23;;;;;;;;;17.50;17.00;;;;;;;;5060892;28;51152;-45
2022/11/20 13:34:12;;;;;;;;;16.50;14.25;;;;;;;;5047121;28;51710;-45
2022/11/20 13:36:57;;;;;;;;;19.00;15.75;;;;;;;;5060958;28;51106;-43
2022/11/20 13:39:41;;;;;;;;;16.00;14.00;;;;;;;;5089209;27;51026;-42
2022/11/20 13:42:27;;;;;;;;;19.75;17.75;;;;;;;;5060744;28;51455;-42
2022/11/20 13:45:22;;;;;;;;;20.75;16.25;;;;;;;;5059932;28;51051;-45
2022/11/20 13:48:23;;;;;;;;;15.25;12.25;;;;;;;;5060746;28;52251;-43
2022/11/20 13:51:29;;;;;;;;;16.00;15.50;;;;;;;;5060096;28;51196;-43
2022/11/20 13:54:23;;;;;;;;;14.75;13.50;;;;;;;;5060733;28;51177;-42
2022/11/20 13:57:28;;;;;;;;;14.00;11.75;;;;;;;;5060263;28;50961;-44
2022/11/20 14:00:17;;;;;;;;;16.00;13.75;;;;;;;;5087459;27;51171;-44
2022/11/20 14:03:05;;;;;;;;;16.25;12.00;;;;;;;;5087704;27;51206;-45
2022/11/20 14:05:55;;;;;;;;;15.00;14.50;;;;;;;;5060422;28;51127;-45
2022/11/20 14:08:42;;;;;;;;;14.00;14.00;;;;;;;;5058169;28;51213;-48
2022/11/20 14:11:27;;;;;;;;;14.50;13.25;;;;;;;;5059564;28;51117;-44
2022/11/20 14:14:38;;;;;;;;;16.75;15.00;;;;;;;;5060234;28;51056;-48
2022/11/20 14:17:22;;;;;;;;;15.50;14.25;;;;;;;;5060802;28;51155;-42
2022/11/20 14:20:14;;;;;;;;;18.50;12.50;;;;;;;;5060264;28;51418;-42
2022/11/20 14:22:58;;;;;;;;;10.50;10.50;;;;;;;;5058773;28;52120;-43
2022/11/20 14:25:45;;;;;;;;;18.25;13.25;;;;;;;;5060068;28;51471;-43
2022/11/20 14:28:30;;;;;;;;;18.75;14.50;;;;;;;;5060089;28;51090;-42
2022/11/20 14:31:20;;;;;;;;;19.00;15.75;;;;;;;;5060429;28;51122;-46
2022/11/20 14:34:05;;;;;;;;;13.50;13.00;;;;;;;;5059814;28;51055;-45
2022/11/20 14:36:55;;;;;;;;;16.00;11.75;;;;;;;;5060004;28;51143;-44
2022/11/20 14:39:48;;;;;;;;;17.00;14.00;;;;;;;;5059928;28;51985;-45
2022/11/20 14:42:33;;;;;;;;;13.75;12.50;;;;;;;;5060160;28;51080;-44
2022/11/20 14:45:18;;;;;;;;;16.00;13.00;;;;;;;;5059504;28;51323;-44
2022/11/20 14:48:02;;;;;;;;;13.75;13.00;;;;;;;;5020350;28;51221;-48
2022/11/20 14:50:46;;;;;;;;;18.50;13.00;;;;;;;;5033993;28;51083;-47
2022/11/20 14:53:31;;;;;;;;;14.25;13.50;;;;;;;;5059685;28;51086;-45
2022/11/20 14:56:21;;;;;;;;;17.75;13.75;;;;;;;;5059749;28;51121;-44
2022/11/20 14:59:05;;;;;;;;;15.75;13.00;;;;;;;;5059613;28;51522;-46
2022/11/20 15:02:18;;;;;;;;;13.50;12.00;;;;;;;;5059758;28;51469;-44
2022/11/20 15:05:03;;;;;;;;;15.50;13.00;;;;;;;;5055772;28;50960;-45
2022/11/20 15:07:50;;;;;;;;;15.50;13.75;;;;;;;;5059956;28;51185;-44
2022/11/20 15:10:34;;;;;;;;;16.50;13.00;;;;;;;;5059157;28;51087;-46
2022/11/20 15:13:22;;;;;;;;;16.00;12.25;;;;;;;;5059135;28;51076;-46
2022/11/20 15:16:17;;;;;;;;;15.75;13.25;;;;;;;;4975273;28;51444;-44
2022/11/20 15:19:02;;;;;;;;;22.00;16.50;;;;;;;;5002142;28;51129;-44
2022/11/20 15:21:49;;;;;;;;;14.50;12.50;;;;;;;;5059723;28;51149;-43
2022/11/20 15:24:34;;;;;;;;;14.00;12.25;;;;;;;;5058826;28;51141;-47
2022/11/20 15:27:18;;;;;;;;;18.25;13.75;;;;;;;;5059485;28;51154;-43
2022/11/20 15:30:12;;;;;;;;;13.00;8.50;;;;;;;;5059323;28;52554;-43
2022/11/20 15:32:56;;;;;;;;;19.25;15.25;;;;;;;;5059505;28;51103;-44
2022/11/20 15:35:41;;;;;;;;;22.25;15.00;;;;;;;;5058756;28;51475;-44
2022/11/20 15:38:25;;;;;;;;;15.00;12.25;;;;;;;;5059439;28;51169;-45
2022/11/20 15:41:10;;;;;;;;;19.50;12.50;;;;;;;;5020405;28;51425;-44
2022/11/20 15:43:54;;;;;;;;;14.00;13.00;;;;;;;;5058976;28;51153;-46
2022/11/20 15:46:42;;;;;;;;;18.00;12.75;;;;;;;;5059460;28;51027;-43
2022/11/20 15:49:26;;;;;;;;;16.50;13.00;;;;;;;;5059008;28;51130;-44
2022/11/20 15:52:11;;;;;;;;;15.50;13.50;;;;;;;;5059304;28;51078;-43
2022/11/20 15:54:56;;;;;;;;;13.00;13.00;;;;;;;;5058960;28;51194;-44
2022/11/20 15:57:40;;;;;;;;;11.00;11.00;;;;;;;;5059297;28;51127;-43
2022/11/20 16:00:25;;;;;;;;;12.75;12.25;;;;;;;;5058714;28;51356;-46
2022/11/20 16:03:11;;;;;;;;;16.25;12.00;;;;;;;;5058648;28;51334;-45
2022/11/20 16:05:55;;;;;;;;;15.25;11.00;;;;;;;;5059025;28;51040;-43
2022/11/20 16:08:39;;;;;;;;;13.00;9.00;;;;;;;;5058802;28;51093;-45
2022/11/20 16:11:24;;;;;;;;;15.50;14.25;;;;;;;;5058954;28;51161;-43
2022/11/20 16:17:13;;;;;;;;;15.00;15.00;;;;;;;;5058842;28;51055;-42
2022/11/20 16:19:57;;;;;;;;;16.00;14.00;;;;;;;;5058718;28;51002;-44
2022/11/20 16:22:42;;;;;;;;;19.50;14.50;;;;;;;;5049326;28;51181;-46